KDTL/DTL METAR and TAF weather

Enter ICAO airport designator
Station Type Date Time Source
KDTL METAR 2019/11/21 03:55 UTC NOAA

KDTL 210355Z AUTO 01003KT 4SM BR OVC006 01/00 A2987 RMK AO2


Station Type Date Time Source
KDTL Decoded METAR 2019/11/21 03:55 UTC NOAA

Detroit Lakes, Detroit Lakes Airport-Wething Field, MN, United States (KDTL) 46-50N 095-53W
Nov 20, 2019 - 10:55 PM EST / 2019.11.21 0355 UTC
Wind: from the N (010 degrees) at 3 MPH (3 KT):0
Visibility: 4 mile(s):0
Sky conditions: overcast
Weather: mist
Temperature: 33 F (1 C)
Dew Point: 32 F (0 C)
Relative Humidity: 93%
Pressure (altimeter): 29.87 in. Hg (1011 hPa)
ob: KDTL 210355Z AUTO 01003KT 4SM BR OVC006 01/00 A2987 RMK AO2
cycle: 4

Station Type Date Time Source
KDTL TAF UTC NOAA

Error!

Example: see airport list